Ana Sayfa
METAR-TAF:

METAR-TAF

Havaalanları :

Sinop Havalimanı

Sinop, Türkiye

Enlem: 42-00-57N, Boylam: 035-03-59E, yükseklik: 7 m

Güncel hava durumu gözlemi

Rapor saat 07:50 UTC de 17 saat ve 25 dakika önce yapıldı.
Rüzgar batı/kuzeybatıdan 15 kt
Sıcaklık 26°C
Nem 61%
Basınç 1013 hPa
Görüş mesafesi 10 km veya daha fazla
3000 ft yükseklikte parçalı bulutlu

METAR: LTCM 170750Z 29015KT 9999 SCT030 26/18 Q1013

Saat: 04:15 (01:15 UTC)

Tahmin

Rapor saat 13:40 UTC de 11 saat ve 35 dakika önce yapıldı.
Ayın 17'si saat 15 UTC'den ayın 17'si saat 24 UTC'ye kadar geçerli Tahmin
Rüzgar batı/kuzeybatıdan 12 kt
Görüş mesafesi 10 km veya daha fazla
3300 ft yükseklikte parçalı bulutlu
10000 ft yükseklikte parçalı çok bulutlu

TAF: LTCM 171340Z 1715/1724 29012KT 9999 SCT033 BKN100

4.000'den fazla havaalanı için hava durumu gözlemleri ve tahminleri (METAR ve TAF raporları).

Kullanılabilir istasyonlar harita üzerinde sarı ve kırmızı noktalarla gösterilir.

İstasyonun adını görmek için fareyi noktanın üzerinde gezdirin.

Sonrasında hava gözlem ve tahminlerini görmek için tıklayın.

Haritayı değiştirmek için: yaklaştırmak için siyah artı işaretli yeşil düğmeye ve uzaklaştırmak için de eksi işaretli düğmeye hızla tıklayın; bitişik haritalar için yeşil okları kullanın.


METAR-TAF: